createdAt,value
2018-12-13T00:00:20.859Z,15.15
2018-12-13T00:02:28.251Z,15.93
2018-12-13T00:04:35.780Z,14.40
2018-12-13T00:06:43.557Z,15.30
2018-12-13T00:08:55.297Z,16.40
2018-12-13T00:11:02.995Z,15.65
2018-12-13T00:13:06.228Z,15.58
2018-12-13T00:15:11.435Z,16.40
2018-12-13T00:17:16.037Z,16.77
2018-12-13T00:19:23.898Z,15.70
2018-12-13T00:21:28.943Z,16.32
2018-12-13T00:23:36.580Z,16.10
2018-12-13T00:25:41.407Z,15.55
2018-12-13T00:27:49.286Z,14.80
2018-12-13T00:30:01.383Z,16.62
2018-12-13T00:32:09.268Z,15.45
2018-12-13T00:36:20.993Z,17.00
2018-12-13T00:38:32.709Z,15.32
2018-12-13T00:40:37.499Z,16.73
2018-12-13T00:42:45.295Z,16.37
2018-12-13T00:44:50.215Z,16.82
2018-12-13T00:46:57.658Z,17.37
2018-12-13T00:49:02.560Z,17.10
2018-12-13T00:51:09.878Z,18.23
2018-12-13T00:53:17.646Z,17.63
2018-12-13T00:55:25.562Z,16.85
2018-12-13T00:57:32.868Z,14.35
2018-12-13T00:59:40.662Z,16.12
2018-12-13T01:01:45.366Z,15.20
2018-12-13T01:03:53.059Z,15.25
2018-12-13T01:06:00.758Z,15.38
2018-12-13T01:08:05.960Z,17.42
2018-12-13T01:10:10.436Z,14.60
2018-12-13T01:12:19.000Z,15.68
2018-12-13T01:14:24.161Z,16.25
2018-12-13T01:16:36.847Z,15.32
2018-12-13T01:18:44.143Z,13.85
2018-12-13T01:20:49.152Z,14.75
2018-12-13T01:22:56.731Z,15.75
2018-12-13T01:24:59.656Z,14.65
2018-12-13T01:27:04.438Z,15.20
2018-12-13T01:29:12.219Z,15.18
2018-12-13T01:31:16.832Z,14.60
2018-12-13T01:33:24.498Z,16.02
2018-12-13T01:37:36.282Z,16.73
2018-12-13T01:39:43.739Z,17.90
2018-12-13T01:41:48.735Z,15.50
2018-12-13T01:43:56.319Z,16.10
2018-12-13T01:45:59.267Z,15.90
2018-12-13T01:48:11.998Z,17.15
2018-12-13T01:50:19.697Z,16.32
2018-12-13T01:52:27.471Z,14.58
2018-12-13T01:54:35.038Z,16.07
2018-12-13T01:56:40.106Z,17.27
2018-12-13T01:58:51.914Z,16.97
2018-12-13T02:00:56.655Z,14.65
2018-12-13T02:03:01.433Z,16.40
2018-12-13T02:05:09.027Z,16.73
2018-12-13T02:07:16.825Z,16.70
2018-12-13T02:09:22.087Z,15.13
2018-12-13T02:11:29.687Z,15.70
2018-12-13T02:13:34.332Z,14.83
2018-12-13T02:15:41.921Z,15.43
2018-12-13T02:17:47.256Z,15.40
2018-12-13T02:19:54.750Z,15.10
2018-12-13T02:22:02.659Z,13.75
2018-12-13T02:24:10.926Z,15.05
2018-12-13T02:26:15.451Z,15.35
2018-12-13T02:28:20.454Z,13.43
2018-12-13T02:30:32.771Z,15.13
2018-12-13T02:32:40.253Z,14.07
2018-12-13T02:34:45.307Z,15.03
2018-12-13T02:38:56.577Z,14.70
2018-12-13T02:41:04.203Z,13.50
2018-12-13T02:43:09.042Z,14.98
2018-12-13T02:45:21.347Z,13.85
2018-12-13T02:47:26.471Z,15.45
2018-12-13T02:49:31.872Z,14.15
2018-12-13T02:51:36.939Z,15.00
2018-12-13T02:53:41.635Z,16.30
2018-12-13T02:55:46.363Z,15.88
2018-12-13T02:57:51.340Z,15.58
2018-12-13T02:59:59.382Z,14.75
2018-12-13T03:02:04.173Z,15.48
2018-12-13T03:04:16.267Z,15.83
2018-12-13T03:06:21.025Z,15.58
2018-12-13T03:08:29.319Z,13.80
2018-12-13T03:10:37.264Z,15.70
2018-12-13T03:12:49.008Z,15.85
2018-12-13T03:14:56.311Z,14.80
2018-12-13T03:17:01.540Z,15.63
2018-12-13T03:19:09.028Z,15.63
2018-12-13T03:21:13.947Z,14.65
2018-12-13T03:23:22.632Z,14.73
2018-12-13T03:25:34.515Z,14.45
2018-12-13T03:27:39.427Z,16.20
2018-12-13T03:29:44.358Z,14.13
2018-12-13T03:31:49.352Z,15.43
2018-12-13T03:33:53.884Z,15.85
2018-12-13T03:36:01.521Z,13.18
2018-12-13T03:38:06.912Z,14.53
2018-12-13T03:40:18.392Z,14.68
2018-12-13T03:42:38.247Z,14.68
2018-12-13T03:44:43.043Z,14.07
2018-12-13T03:46:54.968Z,15.75
2018-12-13T03:48:57.991Z,14.38
2018-12-13T03:51:03.059Z,15.88
2018-12-13T03:53:10.723Z,15.80
2018-12-13T03:55:18.775Z,13.53
2018-12-13T03:57:23.643Z,13.22
2018-12-13T03:59:28.482Z,14.00
2018-12-13T04:01:36.054Z,14.25
2018-12-13T04:03:44.274Z,13.35
2018-12-13T04:05:49.060Z,13.80
2018-12-13T04:07:56.644Z,13.78
2018-12-13T04:10:02.439Z,14.50
2018-12-13T04:12:07.692Z,14.23
2018-12-13T04:14:15.531Z,15.93
2018-12-13T04:16:20.365Z,14.03
2018-12-13T04:18:27.875Z,14.78
2018-12-13T04:20:32.933Z,13.55
2018-12-13T04:22:37.702Z,15.55
2018-12-13T04:24:45.317Z,13.25
2018-12-13T04:26:50.198Z,13.93
2018-12-13T04:28:54.915Z,14.63
2018-12-13T04:31:02.479Z,11.85
2018-12-13T04:33:07.539Z,12.07
2018-12-13T04:35:15.683Z,14.18
2018-12-13T04:37:23.280Z,16.60
2018-12-13T04:39:31.348Z,14.28
2018-12-13T04:41:34.195Z,14.40
2018-12-13T04:43:42.113Z,14.93
2018-12-13T04:45:50.069Z,15.65
2018-12-13T04:48:01.819Z,14.95
2018-12-13T04:50:07.001Z,13.83
2018-12-13T04:52:14.493Z,14.15
2018-12-13T04:54:26.296Z,15.05
2018-12-13T04:56:31.274Z,14.23
2018-12-13T04:58:36.027Z,14.93
2018-12-13T05:00:43.503Z,14.50
2018-12-13T05:02:51.299Z,13.28
2018-12-13T05:04:59.067Z,14.35
2018-12-13T05:07:04.151Z,14.70
2018-12-13T05:09:11.547Z,15.55
2018-12-13T05:11:19.143Z,12.93
2018-12-13T05:13:22.448Z,14.13
2018-12-13T05:15:30.663Z,16.93
2018-12-13T05:17:33.539Z,14.47
2018-12-13T05:19:41.379Z,15.28
2018-12-13T05:21:53.131Z,15.45
2018-12-13T05:24:01.054Z,17.55
2018-12-13T05:26:09.036Z,14.15
2018-12-13T05:28:16.964Z,14.70
2018-12-13T05:30:21.915Z,14.13
2018-12-13T05:32:29.711Z,15.85
2018-12-13T05:34:35.532Z,14.35
2018-12-13T05:36:43.131Z,14.53
2018-12-13T05:38:50.843Z,13.88
2018-12-13T05:40:59.514Z,15.25
2018-12-13T05:43:07.307Z,14.90
2018-12-13T05:45:15.006Z,14.50
2018-12-13T05:47:19.691Z,13.22
2018-12-13T05:49:22.554Z,15.45
2018-12-13T05:51:27.261Z,15.60
2018-12-13T05:53:31.896Z,14.65
2018-12-13T05:55:36.722Z,14.15
2018-12-13T05:57:44.504Z,15.55
2018-12-13T05:59:52.188Z,14.05
2018-12-13T06:01:57.173Z,14.75
2018-12-13T06:04:01.892Z,13.80
2018-12-13T06:06:06.523Z,14.60
2018-12-13T06:08:11.643Z,14.23
2018-12-13T06:10:19.036Z,15.43
2018-12-13T06:12:23.711Z,16.37
2018-12-13T06:14:28.507Z,16.35
2018-12-13T06:16:33.311Z,15.63
2018-12-13T06:18:41.152Z,15.70
2018-12-13T06:20:49.146Z,14.78
2018-12-13T06:22:56.443Z,15.53
2018-12-13T06:25:05.856Z,15.50
2018-12-13T06:27:14.315Z,16.05
2018-12-13T06:29:18.819Z,16.60
2018-12-13T06:31:26.478Z,14.83
2018-12-13T06:33:31.486Z,18.20
2018-12-13T06:35:36.239Z,17.73
2018-12-13T06:37:40.977Z,18.95
2018-12-13T06:39:49.498Z,18.07
2018-12-13T06:41:52.599Z,16.27
2018-12-13T06:43:57.446Z,17.73
2018-12-13T06:46:02.221Z,16.82
2018-12-13T06:48:09.992Z,17.87
2018-12-13T06:50:21.642Z,16.40
2018-12-13T06:52:26.447Z,16.25
2018-12-13T06:54:34.067Z,19.52
2018-12-13T06:56:41.605Z,17.77
2018-12-13T06:58:49.194Z,20.08
2018-12-13T07:00:56.609Z,19.12
2018-12-13T07:03:04.023Z,21.00
2018-12-13T07:05:08.756Z,22.85
2018-12-13T07:07:13.439Z,21.15
2018-12-13T07:09:21.698Z,18.35
2018-12-13T07:11:29.118Z,20.23
2018-12-13T07:13:33.879Z,19.05
2018-12-13T07:15:41.315Z,20.55
2018-12-13T07:17:45.798Z,18.57
2018-12-13T07:19:53.388Z,18.00
2018-12-13T07:21:58.222Z,17.57
2018-12-13T07:24:10.062Z,17.20
2018-12-13T07:26:15.131Z,19.98
2018-12-13T07:28:20.035Z,16.67
2018-12-13T07:30:25.186Z,19.17
2018-12-13T07:32:32.843Z,17.60
2018-12-13T07:34:37.535Z,16.90
2018-12-13T07:36:42.227Z,16.57
2018-12-13T07:38:50.055Z,19.05
2018-12-13T07:40:55.015Z,16.67
2018-12-13T07:42:59.827Z,16.15
2018-12-13T07:45:05.159Z,14.95
2018-12-13T07:47:09.503Z,13.32
2018-12-13T07:49:21.039Z,17.35
2018-12-13T07:51:32.762Z,23.85
2018-12-13T07:53:40.459Z,23.10
2018-12-13T07:55:48.103Z,29.75
2018-12-13T07:57:53.415Z,27.95
2018-12-13T08:00:01.836Z,25.10
2018-12-13T08:02:09.457Z,22.52
2018-12-13T08:04:17.580Z,23.22
2018-12-13T08:06:25.622Z,22.82
2018-12-13T08:08:37.123Z,22.22
2018-12-13T08:10:45.131Z,21.37
2018-12-13T08:12:52.627Z,18.80
2018-12-13T08:14:57.483Z,20.40
2018-12-13T08:17:09.371Z,19.98
2018-12-13T08:19:21.212Z,19.30
2018-12-13T08:21:29.219Z,19.85
2018-12-13T08:23:34.175Z,21.17
2018-12-13T08:25:41.911Z,20.37
2018-12-13T08:27:46.875Z,20.50
2018-12-13T08:29:54.534Z,20.17
2018-12-13T08:31:59.087Z,22.42
2018-12-13T08:34:03.978Z,20.85
2018-12-13T08:36:11.962Z,21.42
2018-12-13T08:38:17.390Z,21.05
2018-12-13T08:40:18.838Z,23.27
2018-12-13T08:42:32.763Z,23.45
2018-12-13T08:44:40.687Z,21.12
2018-12-13T08:46:45.903Z,24.95
2018-12-13T08:48:50.400Z,24.82
2018-12-13T08:50:58.569Z,23.50
2018-12-13T08:53:06.751Z,24.23
2018-12-13T08:55:14.794Z,24.20
2018-12-13T08:57:22.702Z,24.35
2018-12-13T08:59:30.379Z,22.40
2018-12-13T09:01:35.186Z,22.87
2018-12-13T09:03:43.743Z,22.00
2018-12-13T09:05:48.592Z,23.00
2018-12-13T09:07:56.722Z,22.55
2018-12-13T09:10:02.046Z,24.60
2018-12-13T09:12:09.419Z,22.90
2018-12-13T09:14:17.262Z,25.05
2018-12-13T09:16:31.315Z,22.15
2018-12-13T09:18:35.339Z,23.38
2018-12-13T09:20:43.040Z,25.27
2018-12-13T09:22:51.799Z,24.75
2018-12-13T09:24:56.598Z,24.07
2018-12-13T09:27:04.217Z,23.95
2018-12-13T09:29:11.895Z,25.45
2018-12-13T09:31:19.951Z,22.25
2018-12-13T09:33:27.435Z,25.10
2018-12-13T09:35:35.443Z,24.37
2018-12-13T09:37:47.429Z,24.55
2018-12-13T09:39:53.171Z,24.95
2018-12-13T09:42:01.199Z,23.50
2018-12-13T09:44:11.111Z,25.80
2018-12-13T09:46:18.845Z,23.60
2018-12-13T09:48:23.971Z,23.30
2018-12-13T09:50:31.483Z,23.65
2018-12-13T09:52:36.175Z,20.25
2018-12-13T09:58:54.866Z,22.00
2018-12-13T10:03:06.216Z,20.45
2018-12-13T10:11:24.207Z,19.92
2018-12-13T10:15:35.730Z,19.40
2018-12-13T10:17:47.442Z,22.45
2018-12-13T10:19:55.269Z,36.48
2018-12-13T10:22:03.278Z,55.30
2018-12-13T10:24:12.995Z,88.62
2018-12-13T10:26:20.714Z,164.80
2018-12-13T10:28:28.639Z,26.82
2018-12-13T10:30:36.630Z,25.35
2018-12-13T10:32:44.384Z,20.80
2018-12-13T10:34:49.383Z,20.52
2018-12-13T10:36:57.562Z,20.57
2018-12-13T10:39:06.479Z,20.70
2018-12-13T10:41:14.559Z,21.55
2018-12-13T10:43:19.664Z,20.43
2018-12-13T10:45:31.355Z,22.15
2018-12-13T10:47:39.463Z,23.38
2018-12-13T10:49:47.028Z,22.35
2018-12-13T10:51:54.675Z,18.85
2018-12-13T10:54:06.384Z,19.05
2018-12-13T10:56:11.589Z,19.85
2018-12-13T10:58:19.845Z,19.80
2018-12-13T11:00:36.231Z,17.73
2018-12-13T11:03:01.423Z,19.95
2018-12-13T11:05:09.039Z,18.73
2018-12-13T11:07:16.937Z,20.65
2018-12-13T11:09:28.782Z,17.65
2018-12-13T11:11:33.786Z,19.17
2018-12-13T11:13:41.542Z,21.82
2018-12-13T11:15:49.483Z,19.82
2018-12-13T11:17:57.287Z,19.30
2018-12-13T11:20:05.222Z,19.37
2018-12-13T11:22:10.092Z,21.93
2018-12-13T11:24:24.922Z,20.00
2018-12-13T11:26:32.337Z,19.48
2018-12-13T11:28:52.480Z,21.37
2018-12-13T11:31:00.208Z,20.43
2018-12-13T11:33:08.155Z,19.67
2018-12-13T11:35:13.234Z,19.10
2018-12-13T11:37:22.011Z,21.12
2018-12-13T11:39:30.122Z,17.80
2018-12-13T11:41:34.837Z,17.98
2018-12-13T11:43:39.579Z,19.67
2018-12-13T11:45:48.229Z,19.80
2018-12-13T11:47:56.563Z,20.72
2018-12-13T11:50:03.550Z,19.27
2018-12-13T11:52:11.092Z,19.52
2018-12-13T11:54:23.309Z,17.62
2018-12-13T11:56:31.283Z,19.42
2018-12-13T11:58:39.664Z,17.55
2018-12-13T12:00:47.255Z,18.12
2018-12-13T12:02:55.223Z,19.60
2018-12-13T12:05:04.211Z,17.17
2018-12-13T12:07:08.795Z,16.17
2018-12-13T12:09:16.535Z,16.93
2018-12-13T12:11:21.339Z,14.85
2018-12-13T12:13:26.355Z,16.00
2018-12-13T12:15:31.524Z,16.60
2018-12-13T12:17:36.279Z,16.42
2018-12-13T12:19:41.084Z,15.83
2018-12-13T12:21:48.962Z,17.57
2018-12-13T12:23:57.027Z,18.48
2018-12-13T12:26:04.684Z,16.90
2018-12-13T12:30:16.258Z,14.93
2018-12-13T12:32:24.201Z,16.90
2018-12-13T12:34:29.119Z,17.85
2018-12-13T12:36:37.147Z,17.37
2018-12-13T12:38:42.022Z,20.52
2018-12-13T12:40:49.955Z,19.92
2018-12-13T12:42:58.092Z,18.40
2018-12-13T12:45:06.151Z,19.60
2018-12-13T12:47:13.870Z,18.62
2018-12-13T12:49:21.816Z,18.35
2018-12-13T12:51:29.619Z,17.50
2018-12-13T12:53:37.841Z,18.67
2018-12-13T12:55:46.440Z,18.07
2018-12-13T12:57:54.223Z,18.45
2018-12-13T12:59:59.075Z,17.45
2018-12-13T13:02:06.866Z,17.75
2018-12-13T13:04:14.839Z,18.52
2018-12-13T13:06:22.423Z,19.25
2018-12-13T13:08:30.551Z,18.70
2018-12-13T13:10:38.840Z,18.35
2018-12-13T13:12:46.387Z,17.82
2018-12-13T13:14:54.314Z,16.40
2018-12-13T13:17:02.050Z,17.23
2018-12-13T13:19:06.887Z,16.65
2018-12-13T13:21:14.841Z,18.60
2018-12-13T13:23:22.592Z,15.90
2018-12-13T13:25:30.433Z,18.52
2018-12-13T13:27:38.247Z,17.30
2018-12-13T13:29:46.332Z,15.78
2018-12-13T13:31:50.843Z,18.57
2018-12-13T13:33:58.778Z,17.85
2018-12-13T13:36:07.459Z,18.67
2018-12-13T13:42:25.775Z,17.62
2018-12-13T13:46:39.307Z,17.57
2018-12-13T13:50:50.667Z,17.23
2018-12-13T13:53:04.123Z,16.40
2018-12-13T13:55:08.985Z,17.12
2018-12-13T13:57:16.794Z,16.93
2018-12-13T13:59:24.638Z,16.32
2018-12-13T14:01:32.383Z,16.23
2018-12-13T14:03:40.376Z,18.00
2018-12-13T14:05:48.148Z,18.17
2018-12-13T14:07:55.937Z,17.37
2018-12-13T14:10:01.012Z,18.00
2018-12-13T14:12:12.751Z,18.20
2018-12-13T14:14:20.633Z,16.67
2018-12-13T14:16:32.555Z,16.77
2018-12-13T14:18:44.572Z,15.58
2018-12-13T14:20:54.265Z,17.27
2018-12-13T14:23:02.362Z,16.20
2018-12-13T14:25:10.075Z,13.72
2018-12-13T14:27:18.075Z,16.60
2018-12-13T14:29:22.866Z,14.53
2018-12-13T14:31:30.867Z,14.58
2018-12-13T14:33:38.619Z,15.20
2018-12-13T14:35:46.494Z,16.60
2018-12-13T14:37:58.082Z,17.35
2018-12-13T14:40:06.467Z,22.55
2018-12-13T14:42:14.088Z,17.75
2018-12-13T14:44:21.895Z,16.75
2018-12-13T14:46:27.121Z,16.85
2018-12-13T14:48:32.083Z,15.30
2018-12-13T14:50:36.890Z,16.87
2018-12-13T14:52:44.483Z,16.52
2018-12-13T14:54:52.426Z,16.12
2018-12-13T14:57:00.471Z,14.75
2018-12-13T14:59:03.587Z,13.88
2018-12-13T15:01:08.329Z,15.03
2018-12-13T15:03:15.911Z,15.80
2018-12-13T15:05:23.983Z,16.75
2018-12-13T15:07:32.099Z,16.52
2018-12-13T15:09:40.099Z,14.45
2018-12-13T15:11:47.617Z,14.15
2018-12-13T15:13:55.615Z,12.68
2018-12-13T15:16:03.605Z,14.35
2018-12-13T15:18:11.392Z,14.85
2018-12-13T15:20:20.063Z,12.15
2018-12-13T15:22:27.939Z,14.33
2018-12-13T15:24:32.821Z,13.38
2018-12-13T15:26:40.463Z,13.00
2018-12-13T15:28:48.051Z,12.95
2018-12-13T15:30:55.887Z,11.85
2018-12-13T15:33:00.954Z,12.98
2018-12-13T15:35:08.712Z,12.68
2018-12-13T15:37:16.626Z,12.28
2018-12-13T15:39:22.271Z,13.53
2018-12-13T15:41:30.307Z,15.43
2018-12-13T15:43:39.161Z,11.73
2018-12-13T15:45:46.642Z,13.30
2018-12-13T15:47:54.391Z,16.97
2018-12-13T15:50:03.767Z,16.65
2018-12-13T15:52:11.115Z,14.68
2018-12-13T15:56:25.011Z,13.22
2018-12-13T15:58:32.674Z,12.58
2018-12-13T16:00:40.279Z,14.28
2018-12-13T16:02:48.319Z,13.18
2018-12-13T16:04:56.142Z,12.45
2018-12-13T16:07:04.114Z,14.60
2018-12-13T16:09:08.895Z,15.38
2018-12-13T16:11:16.518Z,13.10
2018-12-13T16:13:24.232Z,13.90
2018-12-13T16:15:32.251Z,14.65
2018-12-13T16:17:39.996Z,15.23
2018-12-13T16:19:47.675Z,14.63
2018-12-13T16:21:55.612Z,16.05
2018-12-13T16:24:07.298Z,13.25
2018-12-13T16:26:15.018Z,13.00
2018-12-13T16:28:22.788Z,12.35
2018-12-13T16:30:27.752Z,13.72
2018-12-13T16:32:39.070Z,15.35
2018-12-13T16:34:47.159Z,15.80
2018-12-13T16:36:54.633Z,13.00
2018-12-13T16:39:05.090Z,12.98
2018-12-13T16:41:13.086Z,14.30
2018-12-13T16:43:20.860Z,14.07
2018-12-13T16:45:25.880Z,14.60
2018-12-13T16:47:33.864Z,13.22
2018-12-13T16:49:38.899Z,13.45
2018-12-13T16:51:50.779Z,13.10
2018-12-13T16:53:58.859Z,12.85
2018-12-13T16:56:06.211Z,16.57
2018-12-13T16:58:13.698Z,14.18
2018-12-13T17:00:21.650Z,13.90
2018-12-13T17:02:28.972Z,14.45
2018-12-13T17:04:36.708Z,15.13
2018-12-13T17:06:44.373Z,13.20
2018-12-13T17:08:52.175Z,13.60
2018-12-13T17:11:00.466Z,14.70
2018-12-13T17:13:04.832Z,11.80
2018-12-13T17:15:09.860Z,13.40
2018-12-13T17:17:17.603Z,12.40
2018-12-13T17:19:25.227Z,12.90
2018-12-13T17:21:30.514Z,13.68
2018-12-13T17:23:38.197Z,12.60
2018-12-13T17:25:45.946Z,14.00
2018-12-13T17:27:53.995Z,14.30
2018-12-13T17:30:01.827Z,12.05
2018-12-13T17:32:09.491Z,12.07
2018-12-13T17:34:14.508Z,13.10
2018-12-13T17:36:22.131Z,13.55
2018-12-13T17:38:29.894Z,13.08
2018-12-13T17:40:37.971Z,13.62
2018-12-13T17:42:42.967Z,12.30
2018-12-13T17:44:50.799Z,12.45
2018-12-13T17:46:59.062Z,13.45
2018-12-13T17:49:10.991Z,12.40
2018-12-13T17:51:17.163Z,12.93
2018-12-13T17:53:25.551Z,13.18
2018-12-13T17:55:30.811Z,11.75
2018-12-13T17:57:38.656Z,13.90
2018-12-13T17:59:43.535Z,12.45
2018-12-13T18:01:51.265Z,12.15
2018-12-13T18:03:52.870Z,12.40
2018-12-13T18:05:58.871Z,12.18
2018-12-13T18:08:04.035Z,12.37
2018-12-13T18:10:11.947Z,13.03
2018-12-13T18:14:55.539Z,12.40
2018-12-13T18:17:07.707Z,14.33
2018-12-13T18:19:15.487Z,12.82
2018-12-13T18:21:20.334Z,13.55
2018-12-13T18:23:25.086Z,13.20
2018-12-13T18:25:30.471Z,14.03
2018-12-13T18:27:35.402Z,13.15
2018-12-13T18:29:48.783Z,14.73
2018-12-13T18:31:53.881Z,13.85
2018-12-13T18:34:01.817Z,13.05
2018-12-13T18:36:09.694Z,12.90
2018-12-13T18:38:17.898Z,13.85
2018-12-13T18:40:25.424Z,16.07
2018-12-13T18:42:38.195Z,16.55
2018-12-13T18:44:43.091Z,15.93
2018-12-13T18:46:49.084Z,16.35
2018-12-13T18:48:57.515Z,16.32
2018-12-13T18:51:09.177Z,14.33
2018-12-13T18:53:16.580Z,14.20
2018-12-13T18:55:24.673Z,13.68
2018-12-13T18:57:29.433Z,12.88
2018-12-13T18:59:34.120Z,15.28
2018-12-13T19:01:41.695Z,14.40
2018-12-13T19:03:49.666Z,15.03
2018-12-13T19:06:01.419Z,15.03
2018-12-13T19:08:14.268Z,15.30
2018-12-13T19:10:23.050Z,14.18
2018-12-13T19:12:30.584Z,13.22
2018-12-13T19:14:39.374Z,13.38
2018-12-13T19:16:47.345Z,12.98
2018-12-13T19:18:56.031Z,13.93
2018-12-13T19:21:04.607Z,14.00
2018-12-13T19:23:18.836Z,13.10
2018-12-13T19:25:30.061Z,13.38
2018-12-13T19:27:39.590Z,13.78
2018-12-13T19:29:47.731Z,15.80
2018-12-13T19:34:52.560Z,16.05
2018-12-13T19:37:04.973Z,19.27
2018-12-13T19:39:13.259Z,14.60
2018-12-13T19:41:22.336Z,13.93
2018-12-13T19:43:30.851Z,14.10
2018-12-13T19:45:39.060Z,14.45
2018-12-13T19:47:47.901Z,15.55
2018-12-13T19:49:56.679Z,13.98
2018-12-13T19:52:04.678Z,14.70
2018-12-13T19:54:15.830Z,13.08
2018-12-13T19:56:41.039Z,15.83
2018-12-13T19:58:52.657Z,14.58
2018-12-13T20:01:14.536Z,14.70
2018-12-13T20:06:01.343Z,14.95
2018-12-13T20:08:30.524Z,14.75
2018-12-13T20:10:42.228Z,14.67
2018-12-13T20:12:57.510Z,14.87
2018-12-13T20:15:09.892Z,12.90
2018-12-13T20:17:14.827Z,14.85
2018-12-13T20:19:27.026Z,13.28
2018-12-13T20:21:42.545Z,14.47
2018-12-13T20:23:58.771Z,13.40
2018-12-13T20:26:19.682Z,12.93
2018-12-13T20:28:35.389Z,13.43
2018-12-13T20:30:46.033Z,14.58
2018-12-13T20:32:54.869Z,14.03
2018-12-13T20:35:16.122Z,12.98
2018-12-13T20:37:28.000Z,14.03
2018-12-13T20:39:38.409Z,14.28
2018-12-13T20:41:48.444Z,14.68
2018-12-13T20:44:09.339Z,11.83
2018-12-13T20:46:15.026Z,13.48
2018-12-13T20:48:21.283Z,12.90
2018-12-13T20:50:27.428Z,13.05
2018-12-13T20:52:37.078Z,11.40
2018-12-13T20:54:47.195Z,12.95
2018-12-13T20:56:53.065Z,12.43
2018-12-13T20:58:58.015Z,12.40
2018-12-13T21:01:05.623Z,12.43
2018-12-13T21:03:13.725Z,10.65
2018-12-13T21:05:18.825Z,11.53
2018-12-13T21:07:29.706Z,12.00
2018-12-13T21:09:37.571Z,12.60
2018-12-13T21:11:45.635Z,11.03
2018-12-13T21:13:50.735Z,9.95
2018-12-13T21:15:58.286Z,12.60
2018-12-13T21:18:05.950Z,10.75
2018-12-13T21:20:13.754Z,11.97
2018-12-13T21:22:18.507Z,10.90
2018-12-13T21:24:24.584Z,12.30
2018-12-13T21:26:32.419Z,12.18
2018-12-13T21:28:37.590Z,11.70
2018-12-13T21:30:45.290Z,11.43
2018-12-13T21:32:53.720Z,11.48
2018-12-13T21:35:03.608Z,11.93
2018-12-13T21:37:11.857Z,13.35
2018-12-13T21:39:20.414Z,13.18
2018-12-13T21:41:25.159Z,12.33
2018-12-13T21:43:33.288Z,12.75
2018-12-13T21:45:44.932Z,13.00
2018-12-13T21:47:53.679Z,12.07
2018-12-13T21:49:59.955Z,11.80
2018-12-13T21:52:04.903Z,10.95
2018-12-13T21:54:09.859Z,12.45
2018-12-13T21:56:14.664Z,12.40
2018-12-13T21:58:19.152Z,11.33
2018-12-13T22:00:24.186Z,12.65
2018-12-13T22:02:29.391Z,13.03
2018-12-13T22:04:33.821Z,10.93
2018-12-13T22:06:38.723Z,13.45
2018-12-13T22:08:43.527Z,12.55
2018-12-13T22:10:48.287Z,12.85
2018-12-13T22:12:53.195Z,12.73
2018-12-13T22:17:01.988Z,12.58
2018-12-13T22:19:06.680Z,12.28
2018-12-13T22:21:11.419Z,11.70
2018-12-13T22:23:16.022Z,13.25
2018-12-13T22:25:27.739Z,13.15
2018-12-13T22:27:32.679Z,12.95
2018-12-13T22:29:37.510Z,13.03
2018-12-13T22:31:42.381Z,13.40
2018-12-13T22:33:50.327Z,11.45
2018-12-13T22:35:55.663Z,12.37
2018-12-13T22:38:00.155Z,11.75
2018-12-13T22:40:08.135Z,13.00
2018-12-13T22:42:12.909Z,13.30
2018-12-13T22:44:25.077Z,13.32
2018-12-13T22:46:30.035Z,11.85
2018-12-13T22:48:38.062Z,13.45
2018-12-13T22:50:45.567Z,12.50
2018-12-13T22:52:53.451Z,11.43
2018-12-13T22:54:58.319Z,13.03
2018-12-13T22:57:03.487Z,14.30
2018-12-13T22:59:08.067Z,13.10
2018-12-13T23:01:15.936Z,12.88
2018-12-13T23:03:21.266Z,12.55
2018-12-13T23:05:26.791Z,12.50
2018-12-13T23:07:31.751Z,12.95
2018-12-13T23:09:39.562Z,13.43
2018-12-13T23:11:47.260Z,12.25
2018-12-13T23:13:52.459Z,12.63
2018-12-13T23:15:57.326Z,13.40
2018-12-13T23:18:05.205Z,14.18
2018-12-13T23:20:10.159Z,14.03
2018-12-13T23:22:14.990Z,12.58
2018-12-13T23:24:22.836Z,12.60
2018-12-13T23:26:26.142Z,13.88
2018-12-13T23:28:33.664Z,13.60
2018-12-13T23:30:38.491Z,15.18
2018-12-13T23:32:43.322Z,12.13
2018-12-13T23:34:50.991Z,12.88
2018-12-13T23:36:55.723Z,13.70
2018-12-13T23:39:04.249Z,14.05
2018-12-13T23:41:09.397Z,13.35
2018-12-13T23:43:14.244Z,13.85
2018-12-13T23:45:22.110Z,14.60
2018-12-13T23:47:27.098Z,12.80
2018-12-13T23:49:32.071Z,12.75
2018-12-13T23:51:39.588Z,12.65
2018-12-13T23:53:44.731Z,12.55
2018-12-13T23:55:52.483Z,14.03
2018-12-13T23:57:59.890Z,13.30
